METAR Data
IDs: Format: Raw Decoded Include TAF

Data at: 1745 UTC 25 Mar 2019

KLRD 251721Z 10SM SCT025 26/19 A3010 RMK AO2
KLRD 251709Z 01006KT 10SM BKN023 27/19 A3010 RMK AO2
KLRD 251656Z 04006KT 10SM SCT021 26/19 A3010 RMK AO2 SLP200 T02560194
KLRD 251643Z 01006KT 10SM SCT017 26/19 A3010 RMK AO2
KLRD 251556Z 10SM OVC015 23/19 A3010 RMK AO2 SLP200 T02330189
KLRD 251553Z 08004KT 10SM OVC015 23/19 A3010 RMK AO2
KLRD 251456Z 11005KT 10SM OVC013 23/19 A3009 RMK AO2 SLP195 T02280189 52023
KLRD 251356Z 16005KT 10SM OVC013 22/19 A3006 RMK AO2 SLP187 T02220189 $
KLRD 251256Z 10SM OVC013 22/19 A3004 RMK AO2 SLP180 T02220189
KLRD 251156Z 13005KT 10SM OVC013 22/19 A3002 RMK AO2 SLP171 T02170189 10222 20206 53005
KLRD 251056Z 16009KT 10SM OVC015 22/19 A2999 RMK AO2 SLP163 T02170189
KLRD 250956Z AUTO 16007KT 10SM OVC015 22/18 A2999 RMK AO2 SLP161 T02170183
KLRD 250856Z AUTO 13004KT 10SM OVC015 21/18 A3000 RMK AO2 SLP166 T02110183 58009
KLRD 250756Z AUTO 13005KT 10SM OVC017 21/18 A3001 RMK AO2 SLP170 T02110183
KLRD 250743Z AUTO 12004KT 10SM BKN017 21/18 A3002 RMK AO2
KLRD 250656Z AUTO 13007KT 10SM CLR 21/18 A3002 RMK AO2 SLP173 T02110178
KLRD 250556Z AUTO 12006KT 10SM CLR 22/18 A3003 RMK AO2 SLP177 T02170178 10300 20217 51019
KLRD 250456Z AUTO 13007KT 10SM CLR 23/18 A3003 RMK AO2 SLP176 T02280178 403170189
KLRD 250356Z 14008KT 10SM CLR 24/18 A3001 RMK AO2 SLP170 T02440178
KLRD 250256Z 14011KT 10SM CLR 26/18 A2998 RMK AO2 SLP158 T02560178 53013
KLRD 250156Z 11010KT 10SM BKN055 27/18 A2995 RMK AO2 SLP150 T02670178
KLRD 250056Z 10011KT 10SM BKN055 28/18 A2994 RMK AO2 SLP146 T02780178
KLRD 242356Z 12011KT 10SM BKN055 30/18 A2994 RMK AO2 SLP144 T03000178 10317 20256 55007
KLRD 242256Z 11008KT 10SM BKN050 31/18 A2993 RMK AO2 SLP141 T03060178
KLRD 242156Z 9SM FEW048 31/18 A2993 RMK AO2 SLP142 T03110178
KLRD 242056Z 13009KT 10SM SCT044 31/18 A2996 RMK AO2 SLP151 T03060183 56032
KLRD 241956Z 14006KT 10SM FEW034 29/19 A2998 RMK AO2 SLP159 T02940189
KLRD 241910Z VRB04KT 10SM SCT028 28/19 A3001 RMK AO2
KLRD 241856Z 10007KT 10SM BKN028 28/19 A3002 RMK AO2 SLP174 T02780189
KLRD 241756Z 15004KT 10SM OVC024 26/18 A3005 RMK AO2 SLP185 60000 T02560183 10261 20206 58004
KLRD 241656Z 11007KT 10SM OVC018 24/18 A3006 RMK AO2 SLP189 T02390183
KLRD 241619Z 14008KT 10SM OVC016 23/18 A3007 RMK AO2
KLRD 241556Z 12008KT 10SM OVC014 23/18 A3008 RMK AO2 SLP193 T02280183
KLRD 241456Z 14009KT 10SM OVC014 22/18 A3007 RMK AO2 SLP190 60000 T02170178 51020
KLRD 241356Z 13010KT 10SM OVC014 21/18 A3004 RMK AO2 SLP182 T02110178
KLRD 241318Z 13010KT 10SM OVC016 21/18 A3003 RMK AO2
KLRD 241256Z 10SM OVC014 21/18 A3003 RMK AO2 RAE23 SLP177 P0000 T02060178
KLRD 241156Z 14008KT 10SM -RA OVC012 21/18 A3001 RMK AO2 RAB47 SLP168 P0000 6//// 7//// T02060178 10211 20189 53006
KLRD 241056Z 13008KT 10SM OVC014 21/18 A3000 RMK AO2 SLP165 T02060178
KLRD 240956Z AUTO 14010KT 10SM OVC014 21/18 A2999 RMK AO2 SLP162 T02060178
KLRD 240856Z AUTO 16010KT 10SM OVC012 21/18 A2999 RMK AO2 SLP162 T02060178 56015
KLRD 240756Z AUTO 15014KT 10SM OVC012 20/17 A2999 RMK AO2 SLP164 T02000172
KLRD 240726Z AUTO 15010KT 10SM BKN014 19/17 A2999 RMK AO2
KLRD 240656Z AUTO 14008KT 10SM CLR 19/17 A3001 RMK AO2 SLP170 T01890167
KLRD 240556Z AUTO 13005KT 10SM CLR 19/17 A3003 RMK AO2 SLP179 T01940167 10278 20194 50001